createdAt,value
2019-04-03T00:01:11.672Z,9.40
2019-04-03T00:03:41.389Z,9.60
2019-04-03T00:06:10.816Z,10.53
2019-04-03T00:08:40.516Z,9.70
2019-04-03T00:11:11.475Z,10.23
2019-04-03T00:13:42.368Z,10.03
2019-04-03T00:16:11.938Z,9.77
2019-04-03T00:18:41.213Z,10.20
2019-04-03T00:21:11.972Z,10.43
2019-04-03T00:23:41.858Z,10.10
2019-04-03T00:26:11.763Z,10.07
2019-04-03T00:28:41.628Z,10.23
2019-04-03T00:31:11.500Z,10.83
2019-04-03T00:33:41.342Z,10.33
2019-04-03T00:36:10.671Z,10.37
2019-04-03T00:38:39.899Z,10.47
2019-04-03T00:41:09.539Z,10.20
2019-04-03T00:43:38.827Z,10.40
2019-04-03T00:46:08.018Z,10.90
2019-04-03T00:48:37.556Z,10.73
2019-04-03T00:51:07.434Z,10.27
2019-04-03T00:53:37.393Z,10.60
2019-04-03T00:56:06.836Z,10.47
2019-04-03T00:58:37.133Z,10.77
2019-04-03T01:01:08.262Z,10.63
2019-04-03T01:03:38.643Z,10.20
2019-04-03T01:06:07.902Z,11.37
2019-04-03T01:08:37.254Z,11.20
2019-04-03T01:11:06.579Z,10.70
2019-04-03T01:13:36.391Z,11.57
2019-04-03T01:16:06.548Z,11.10
2019-04-03T01:18:36.427Z,11.07
2019-04-03T01:21:06.926Z,11.30
2019-04-03T01:23:37.803Z,10.90
2019-04-03T01:26:10.048Z,11.23
2019-04-03T01:28:41.456Z,11.43
2019-04-03T01:31:14.050Z,11.20
2019-04-03T01:33:42.297Z,11.73
2019-04-03T01:36:11.907Z,11.70
2019-04-03T01:38:41.267Z,11.60
2019-04-03T01:41:10.566Z,11.73
2019-04-03T01:43:40.255Z,10.77
2019-04-03T01:46:09.822Z,11.97
2019-04-03T01:48:39.121Z,11.53
2019-04-03T01:51:09.009Z,12.00
2019-04-03T01:53:38.303Z,11.40
2019-04-03T01:56:07.572Z,12.23
2019-04-03T01:58:37.296Z,12.13
2019-04-03T02:01:08.041Z,11.50
2019-04-03T02:03:37.686Z,12.93
2019-04-03T02:06:07.004Z,12.37
2019-04-03T02:08:36.458Z,12.47
2019-04-03T02:11:06.444Z,12.20
2019-04-03T02:13:36.326Z,12.57
2019-04-03T02:16:06.069Z,12.27
2019-04-03T02:18:35.421Z,12.17
2019-04-03T02:21:05.264Z,12.50
2019-04-03T02:23:35.033Z,12.37
2019-04-03T02:26:04.876Z,13.03
2019-04-03T02:28:35.258Z,13.00
2019-04-03T02:31:04.701Z,12.40
2019-04-03T02:33:34.092Z,13.13
2019-04-03T02:36:04.495Z,12.70
2019-04-03T02:38:34.187Z,12.80
2019-04-03T02:41:05.039Z,12.53
2019-04-03T02:43:35.353Z,13.23
2019-04-03T02:46:04.757Z,12.50
2019-04-03T02:48:37.376Z,12.70
2019-04-03T02:51:06.003Z,13.53
2019-04-03T02:53:35.450Z,13.17
2019-04-03T02:56:05.458Z,13.00
2019-04-03T02:58:35.261Z,13.00
2019-04-03T03:01:07.003Z,13.20
2019-04-03T03:03:36.063Z,13.87
2019-04-03T03:06:06.194Z,12.73
2019-04-03T03:08:36.036Z,12.60
2019-04-03T03:11:06.993Z,12.83
2019-04-03T03:13:38.083Z,12.80
2019-04-03T03:16:08.612Z,13.10
2019-04-03T03:18:37.957Z,13.00
2019-04-03T03:21:11.786Z,12.80
2019-04-03T03:23:38.890Z,14.77
2019-04-03T03:26:08.897Z,14.03
2019-04-03T03:28:38.424Z,14.17
2019-04-03T03:31:09.603Z,13.53
2019-04-03T03:33:41.340Z,13.67
2019-04-03T03:36:11.275Z,13.63
2019-04-03T03:38:41.035Z,13.97
2019-04-03T03:41:13.357Z,13.87
2019-04-03T03:43:43.409Z,14.47
2019-04-03T03:46:12.719Z,13.83
2019-04-03T03:48:44.872Z,14.53
2019-04-03T03:51:15.401Z,14.30
2019-04-03T03:53:48.117Z,13.43
2019-04-03T03:56:18.417Z,14.60
2019-04-03T03:58:48.714Z,13.93
2019-04-03T04:01:18.780Z,14.23
2019-04-03T04:03:49.272Z,13.43
2019-04-03T04:06:18.481Z,14.73
2019-04-03T04:08:48.322Z,13.83
2019-04-03T04:11:17.674Z,13.00
2019-04-03T04:13:48.517Z,13.23
2019-04-03T04:16:18.131Z,13.87
2019-04-03T04:18:49.461Z,14.17
2019-04-03T04:21:19.054Z,13.60
2019-04-03T04:23:48.894Z,13.70
2019-04-03T04:26:18.220Z,14.30
2019-04-03T04:28:47.604Z,14.17
2019-04-03T04:31:17.383Z,14.43
2019-04-03T04:33:47.996Z,13.83
2019-04-03T04:36:18.232Z,14.43
2019-04-03T04:38:47.599Z,14.20
2019-04-03T04:41:17.008Z,13.67
2019-04-03T04:43:46.942Z,14.63
2019-04-03T04:46:17.204Z,14.10
2019-04-03T04:48:46.950Z,13.90
2019-04-03T04:51:16.649Z,14.70
2019-04-03T04:53:46.392Z,14.97
2019-04-03T04:56:15.636Z,14.93
2019-04-03T04:58:45.425Z,14.00
2019-04-03T05:01:17.049Z,14.17
2019-04-03T05:03:46.260Z,14.50
2019-04-03T05:06:16.586Z,13.40
2019-04-03T05:08:46.233Z,14.13
2019-04-03T05:11:16.267Z,14.70
2019-04-03T05:13:46.790Z,15.07
2019-04-03T05:16:19.560Z,14.23
2019-04-03T05:18:47.967Z,14.73
2019-04-03T05:21:17.719Z,14.17
2019-04-03T05:23:47.196Z,14.60
2019-04-03T05:26:16.634Z,14.87
2019-04-03T05:28:54.605Z,14.40
2019-04-03T05:31:17.929Z,15.23
2019-04-03T05:33:48.398Z,15.90
2019-04-03T05:36:18.377Z,14.57
2019-04-03T05:38:48.841Z,15.13
2019-04-03T05:41:18.534Z,15.67
2019-04-03T05:43:48.279Z,14.60
2019-04-03T05:46:19.159Z,14.57
2019-04-03T05:48:49.338Z,15.80
2019-04-03T05:51:19.406Z,14.97
2019-04-03T05:53:48.902Z,14.83
2019-04-03T05:56:18.645Z,15.00
2019-04-03T05:58:55.551Z,14.77
2019-04-03T06:01:19.819Z,14.70
2019-04-03T06:03:49.081Z,15.53
2019-04-03T06:06:18.323Z,14.97
2019-04-03T06:08:49.051Z,14.87
2019-04-03T06:11:20.719Z,15.27
2019-04-03T06:13:49.562Z,16.13
2019-04-03T06:16:19.687Z,15.83
2019-04-03T06:18:48.838Z,15.60
2019-04-03T06:21:18.427Z,16.10
2019-04-03T06:23:48.534Z,15.63
2019-04-03T06:26:18.337Z,15.93
2019-04-03T06:28:48.172Z,15.67
2019-04-03T06:31:18.012Z,15.50
2019-04-03T06:33:50.914Z,15.47
2019-04-03T06:36:19.552Z,15.00
2019-04-03T06:38:48.818Z,15.80
2019-04-03T06:41:18.400Z,15.00
2019-04-03T06:43:50.162Z,17.07
2019-04-03T06:46:19.243Z,15.50
2019-04-03T06:48:48.952Z,15.63
2019-04-03T06:51:18.834Z,15.43
2019-04-03T06:53:48.198Z,15.90
2019-04-03T06:56:17.710Z,16.47
2019-04-03T06:58:47.342Z,15.83
2019-04-03T07:01:18.083Z,15.77
2019-04-03T07:03:48.320Z,15.43
2019-04-03T07:06:18.575Z,17.30
2019-04-03T07:08:48.323Z,16.17
2019-04-03T07:11:23.534Z,16.40
2019-04-03T07:13:49.364Z,16.37
2019-04-03T07:16:18.681Z,16.83
2019-04-03T07:18:48.247Z,17.13
2019-04-03T07:21:17.898Z,16.53
2019-04-03T07:23:47.541Z,17.00
2019-04-03T07:26:17.382Z,16.67
2019-04-03T07:28:47.268Z,16.50
2019-04-03T07:31:18.038Z,15.97
2019-04-03T07:33:47.664Z,17.87
2019-04-03T07:36:16.869Z,16.27
2019-04-03T07:38:46.685Z,17.27
2019-04-03T07:41:16.402Z,16.23
2019-04-03T07:43:46.027Z,17.50
2019-04-03T07:46:15.214Z,16.37
2019-04-03T07:48:44.657Z,17.43
2019-04-03T07:51:13.886Z,17.77
2019-04-03T07:53:43.481Z,16.77
2019-04-03T07:56:13.354Z,16.80
2019-04-03T07:58:43.300Z,17.40
2019-04-03T08:01:13.155Z,17.57
2019-04-03T08:03:43.060Z,17.63
2019-04-03T08:06:12.326Z,17.53
2019-04-03T08:08:41.709Z,17.23
2019-04-03T08:11:10.826Z,17.77
2019-04-03T08:13:40.354Z,18.33
2019-04-03T08:16:09.977Z,17.73
2019-04-03T08:18:39.177Z,17.70
2019-04-03T08:21:08.999Z,17.40
2019-04-03T08:23:38.797Z,17.90
2019-04-03T08:26:10.884Z,17.77
2019-04-03T08:28:39.746Z,18.10
2019-04-03T08:31:11.538Z,17.47
2019-04-03T08:33:40.758Z,17.83
2019-04-03T08:36:22.831Z,17.60
2019-04-03T08:38:40.815Z,17.43
2019-04-03T08:41:10.374Z,18.33
2019-04-03T08:43:40.179Z,17.33
2019-04-03T08:46:10.891Z,18.13
2019-04-03T08:48:40.754Z,17.97
2019-04-03T08:51:09.955Z,16.70
2019-04-03T08:53:39.779Z,17.80
2019-04-03T08:56:09.624Z,18.30
2019-04-03T08:58:39.268Z,17.87
2019-04-03T09:01:10.740Z,17.03
2019-04-03T09:03:40.259Z,17.90
2019-04-03T09:06:09.455Z,17.73
2019-04-03T09:08:39.598Z,18.67
2019-04-03T09:11:09.347Z,17.83
2019-04-03T09:13:39.151Z,19.20
2019-04-03T09:16:10.122Z,18.17
2019-04-03T09:18:39.753Z,18.97
2019-04-03T09:21:09.021Z,18.67
2019-04-03T09:23:38.872Z,17.87
2019-04-03T09:26:08.653Z,18.43
2019-04-03T09:28:41.275Z,18.33
2019-04-03T09:31:09.187Z,18.80
2019-04-03T09:33:38.711Z,19.40
2019-04-03T09:36:08.214Z,19.40
2019-04-03T09:38:40.699Z,18.63
2019-04-03T09:41:08.658Z,18.83
2019-04-03T09:43:39.689Z,19.70
2019-04-03T09:46:09.095Z,19.20
2019-04-03T09:48:38.191Z,18.77
2019-04-03T09:51:09.634Z,18.70
2019-04-03T09:53:39.139Z,18.73
2019-04-03T09:56:08.586Z,18.50
2019-04-03T09:58:38.549Z,17.47
2019-04-03T10:01:08.444Z,19.23
2019-04-03T10:03:38.230Z,17.80
2019-04-03T10:06:08.004Z,18.83
2019-04-03T10:08:40.364Z,18.00
2019-04-03T10:11:09.153Z,18.00
2019-04-03T10:13:38.391Z,17.93
2019-04-03T10:16:08.146Z,18.60
2019-04-03T10:18:39.068Z,18.53
2019-04-03T10:21:09.214Z,18.07
2019-04-03T10:23:38.829Z,17.60
2019-04-03T10:26:09.562Z,17.97
2019-04-03T10:28:42.123Z,17.90
2019-04-03T10:31:10.823Z,17.63
2019-04-03T10:33:40.361Z,16.80
2019-04-03T10:36:11.944Z,16.57
2019-04-03T10:38:42.771Z,17.33
2019-04-03T10:41:12.073Z,17.90
2019-04-03T10:43:42.083Z,17.10
2019-04-03T10:46:11.400Z,18.27
2019-04-03T10:48:40.498Z,18.40
2019-04-03T10:51:10.155Z,18.47
2019-04-03T10:53:39.890Z,18.63
2019-04-03T10:56:10.010Z,20.10
2019-04-03T10:58:42.242Z,21.67
2019-04-03T11:01:10.749Z,19.40
2019-04-03T11:03:40.653Z,18.40
2019-04-03T11:06:10.035Z,19.20
2019-04-03T11:08:39.556Z,19.23
2019-04-03T11:11:09.088Z,20.37
2019-04-03T11:13:38.540Z,19.87
2019-04-03T11:16:07.741Z,16.53
2019-04-03T11:18:37.184Z,18.23
2019-04-03T11:21:06.858Z,17.37
2019-04-03T11:23:41.899Z,18.07
2019-04-03T11:26:07.295Z,18.27
2019-04-03T11:28:38.365Z,17.93
2019-04-03T11:31:07.872Z,17.23
2019-04-03T11:33:37.019Z,17.50
2019-04-03T11:36:06.470Z,18.70
2019-04-03T11:38:36.662Z,19.03
2019-04-03T11:41:12.725Z,18.37
2019-04-03T11:43:37.817Z,18.93
2019-04-03T11:46:07.304Z,20.03
2019-04-03T11:48:37.998Z,19.40
2019-04-03T11:51:07.690Z,18.50
2019-04-03T11:53:36.990Z,17.27
2019-04-03T11:56:06.453Z,18.00
2019-04-03T11:58:36.090Z,18.40
2019-04-03T12:01:06.544Z,20.90
2019-04-03T12:03:36.442Z,20.73
2019-04-03T12:06:06.267Z,20.87
2019-04-03T12:08:35.477Z,20.73
2019-04-03T12:11:06.091Z,20.67
2019-04-03T12:13:36.496Z,21.07
2019-04-03T12:16:06.822Z,20.10
2019-04-03T12:18:36.203Z,19.67
2019-04-03T12:21:06.206Z,21.17
2019-04-03T12:23:38.785Z,19.27
2019-04-03T12:26:10.503Z,18.70
2019-04-03T12:28:38.581Z,19.17
2019-04-03T12:31:08.392Z,19.63
2019-04-03T12:33:38.166Z,19.53
2019-04-03T12:36:08.118Z,20.40
2019-04-03T12:38:38.532Z,19.67
2019-04-03T12:41:10.197Z,20.33
2019-04-03T12:43:39.625Z,19.97
2019-04-03T12:46:08.743Z,20.00
2019-04-03T12:48:38.279Z,20.87
2019-04-03T12:51:07.902Z,18.83
2019-04-03T12:53:37.830Z,21.23
2019-04-03T12:56:09.067Z,19.60
2019-04-03T12:58:38.627Z,20.83
2019-04-03T13:01:10.771Z,19.93
2019-04-03T13:03:39.590Z,20.33
2019-04-03T13:06:09.705Z,20.13
2019-04-03T13:08:39.936Z,19.53
2019-04-03T13:11:09.939Z,18.43
2019-04-03T13:13:39.247Z,19.13
2019-04-03T13:16:10.255Z,19.00
2019-04-03T13:18:39.258Z,19.67
2019-04-03T13:21:09.376Z,19.00
2019-04-03T13:23:39.349Z,19.30
2019-04-03T13:26:08.998Z,18.80
2019-04-03T13:28:40.265Z,18.03
2019-04-03T13:31:10.297Z,18.90
2019-04-03T13:33:40.134Z,17.30
2019-04-03T13:36:09.773Z,17.93
2019-04-03T13:38:39.677Z,18.83
2019-04-03T13:41:10.196Z,19.10
2019-04-03T13:43:40.311Z,20.87
2019-04-03T13:46:10.063Z,18.97
2019-04-03T13:48:39.649Z,18.83
2019-04-03T13:51:12.205Z,18.37
2019-04-03T13:53:40.378Z,18.60
2019-04-03T13:56:11.179Z,19.60
2019-04-03T13:58:40.869Z,18.77
2019-04-03T14:01:10.609Z,19.80
2019-04-03T14:03:40.313Z,18.40
2019-04-03T14:06:09.982Z,20.43
2019-04-03T14:08:39.982Z,19.40
2019-04-03T14:11:09.801Z,19.97
2019-04-03T14:13:39.190Z,19.17
2019-04-03T14:16:18.649Z,20.70
2019-04-03T14:18:41.305Z,19.03
2019-04-03T14:21:11.830Z,18.90
2019-04-03T14:23:41.703Z,20.80
2019-04-03T14:26:13.815Z,19.43
2019-04-03T14:28:42.136Z,20.33
2019-04-03T14:31:11.635Z,22.03
2019-04-03T14:33:45.050Z,21.53
2019-04-03T14:36:12.445Z,20.20
2019-04-03T14:38:42.176Z,20.53
2019-04-03T14:41:11.879Z,24.77
2019-04-03T14:43:41.122Z,20.80
2019-04-03T14:46:10.725Z,22.13
2019-04-03T14:48:40.512Z,18.77
2019-04-03T14:51:11.350Z,17.47
2019-04-03T14:53:41.683Z,17.03
2019-04-03T14:56:11.104Z,17.10
2019-04-03T14:58:40.696Z,17.70
2019-04-03T15:01:11.872Z,17.17
2019-04-03T15:03:42.383Z,17.27
2019-04-03T15:06:12.294Z,18.17
2019-04-03T15:08:43.031Z,16.93
2019-04-03T15:11:13.390Z,17.07
2019-04-03T15:13:42.651Z,16.93
2019-04-03T15:16:12.269Z,16.83
2019-04-03T15:18:42.969Z,17.27
2019-04-03T15:21:12.739Z,16.77
2019-04-03T15:23:42.478Z,15.90
2019-04-03T15:26:11.921Z,16.50
2019-04-03T15:28:41.927Z,18.10
2019-04-03T15:31:13.284Z,17.40
2019-04-03T15:33:42.758Z,17.60
2019-04-03T15:36:12.292Z,16.93
2019-04-03T15:38:42.660Z,17.17
2019-04-03T15:41:12.926Z,16.83
2019-04-03T15:43:45.368Z,17.33
2019-04-03T15:46:14.099Z,17.37
2019-04-03T15:48:44.928Z,17.07
2019-04-03T15:51:14.626Z,17.50
2019-04-03T15:53:44.272Z,17.50
2019-04-03T15:56:14.382Z,17.63
2019-04-03T15:58:43.759Z,17.80
2019-04-03T16:01:13.792Z,18.10
2019-04-03T16:03:43.494Z,18.20
2019-04-03T16:06:12.993Z,18.13
2019-04-03T16:08:44.936Z,17.70
2019-04-03T16:11:13.728Z,18.13
2019-04-03T16:13:44.808Z,17.67
2019-04-03T16:16:14.789Z,17.50
2019-04-03T16:18:44.332Z,17.90
2019-04-03T16:21:14.084Z,16.90
2019-04-03T16:23:43.929Z,17.57
2019-04-03T16:26:13.632Z,17.10
2019-04-03T16:28:43.281Z,18.20
2019-04-03T16:31:13.003Z,18.30
2019-04-03T16:33:42.844Z,17.63
2019-04-03T16:36:15.244Z,17.90
2019-04-03T16:38:43.832Z,17.30
2019-04-03T16:41:13.540Z,18.10
2019-04-03T16:43:42.740Z,18.20
2019-04-03T16:46:12.482Z,18.07
2019-04-03T16:48:42.350Z,18.20
2019-04-03T16:51:12.227Z,18.43
2019-04-03T16:53:41.553Z,17.90
2019-04-03T16:56:11.074Z,17.87
2019-04-03T16:58:40.430Z,18.67
2019-04-03T17:01:12.949Z,17.80
2019-04-03T17:03:41.519Z,18.40
2019-04-03T17:06:11.272Z,17.97
2019-04-03T17:08:40.882Z,18.20
2019-04-03T17:11:12.079Z,17.73
2019-04-03T17:13:41.878Z,18.37
2019-04-03T17:16:13.926Z,18.33
2019-04-03T17:18:42.262Z,17.77
2019-04-03T17:21:11.967Z,18.07
2019-04-03T17:23:44.822Z,18.03
2019-04-03T17:26:12.648Z,18.00
2019-04-03T17:28:42.230Z,18.10
2019-04-03T17:31:11.859Z,17.87
2019-04-03T17:33:41.626Z,16.87
2019-04-03T17:36:11.017Z,16.90
2019-04-03T17:38:40.301Z,17.03
2019-04-03T17:41:09.947Z,16.70
2019-04-03T17:43:39.562Z,17.83
2019-04-03T17:46:10.276Z,17.13
2019-04-03T17:48:39.896Z,17.83
2019-04-03T17:51:09.251Z,18.60
2019-04-03T17:53:38.783Z,18.40
2019-04-03T17:56:08.455Z,19.97
2019-04-03T17:58:38.093Z,20.70
2019-04-03T18:01:07.837Z,20.43
2019-04-03T18:03:37.020Z,21.70
2019-04-03T18:06:06.130Z,20.50
2019-04-03T18:08:35.221Z,20.57
2019-04-03T18:11:05.622Z,22.03
2019-04-03T18:13:34.746Z,21.70
2019-04-03T18:16:04.441Z,20.87
2019-04-03T18:18:34.129Z,23.57
2019-04-03T18:21:03.775Z,22.70
2019-04-03T18:23:33.482Z,21.97
2019-04-03T18:26:03.094Z,22.67
2019-04-03T18:28:35.495Z,23.00
2019-04-03T18:31:04.727Z,22.10
2019-04-03T18:33:34.361Z,21.63
2019-04-03T18:36:04.735Z,21.87
2019-04-03T18:38:34.254Z,21.13
2019-04-03T18:41:04.551Z,22.10
2019-04-03T18:43:33.994Z,20.97
2019-04-03T18:46:03.451Z,21.60
2019-04-03T18:48:32.561Z,21.80
2019-04-03T18:51:02.083Z,20.40
2019-04-03T18:53:31.718Z,20.03
2019-04-03T18:56:01.336Z,20.63
2019-04-03T18:58:30.947Z,20.40
2019-04-03T19:01:01.767Z,21.43
2019-04-03T19:03:31.562Z,20.63
2019-04-03T19:06:00.658Z,21.57
2019-04-03T19:08:29.765Z,21.07
2019-04-03T19:11:02.215Z,20.70
2019-04-03T19:13:30.195Z,20.40
2019-04-03T19:16:01.998Z,21.23
2019-04-03T19:18:31.952Z,21.20
2019-04-03T19:21:01.763Z,20.13
2019-04-03T19:23:32.495Z,21.60
2019-04-03T19:26:01.769Z,20.70
2019-04-03T19:28:30.975Z,21.53
2019-04-03T19:31:00.070Z,20.50
2019-04-03T19:33:29.203Z,19.97
2019-04-03T19:35:58.673Z,21.57
2019-04-03T19:38:28.444Z,19.93
2019-04-03T19:40:57.982Z,19.57
2019-04-03T19:43:27.191Z,18.93
2019-04-03T19:45:56.726Z,19.73
2019-04-03T19:48:26.711Z,19.47
2019-04-03T19:50:56.310Z,17.70
2019-04-03T19:53:25.972Z,18.00
2019-04-03T19:55:55.593Z,17.43
2019-04-03T19:58:25.202Z,17.53
2019-04-03T20:00:54.480Z,17.13
2019-04-03T20:03:24.019Z,17.27
2019-04-03T20:05:55.128Z,16.40
2019-04-03T20:08:24.537Z,15.60
2019-04-03T20:10:53.615Z,15.07
2019-04-03T20:13:22.730Z,14.27
2019-04-03T20:15:54.472Z,14.10
2019-04-03T20:18:25.592Z,15.20
2019-04-03T20:20:54.426Z,14.70
2019-04-03T20:23:24.053Z,14.67
2019-04-03T20:25:53.714Z,13.77
2019-04-03T20:28:24.065Z,13.73
2019-04-03T20:30:54.973Z,14.23
2019-04-03T20:33:24.169Z,12.93
2019-04-03T20:35:53.683Z,13.50
2019-04-03T20:38:23.320Z,12.40
2019-04-03T20:40:52.497Z,12.43
2019-04-03T20:43:22.031Z,12.60
2019-04-03T20:45:51.648Z,12.53
2019-04-03T20:48:20.862Z,12.43
2019-04-03T20:50:49.969Z,12.57
2019-04-03T20:53:19.543Z,11.93
2019-04-03T20:55:48.766Z,12.27
2019-04-03T20:58:18.298Z,13.50
2019-04-03T21:00:51.531Z,13.17
2019-04-03T21:03:19.244Z,12.90
2019-04-03T21:05:48.867Z,12.90
2019-04-03T21:08:18.504Z,12.10
2019-04-03T21:10:48.047Z,12.13
2019-04-03T21:13:17.252Z,12.37
2019-04-03T21:15:46.433Z,12.50
2019-04-03T21:18:15.553Z,13.03
2019-04-03T21:20:45.094Z,12.57
2019-04-03T21:23:14.721Z,11.90
2019-04-03T21:25:44.406Z,12.43
2019-04-03T21:28:14.329Z,12.50
2019-04-03T21:30:43.926Z,12.53
2019-04-03T21:33:13.551Z,13.23
2019-04-03T21:35:44.168Z,13.03
2019-04-03T21:38:13.790Z,12.23
2019-04-03T21:40:42.971Z,12.13
2019-04-03T21:43:12.520Z,12.17
2019-04-03T21:45:42.158Z,12.77
2019-04-03T21:48:11.939Z,12.07
2019-04-03T21:50:43.189Z,12.53
2019-04-03T21:53:12.816Z,12.00
2019-04-03T21:55:42.775Z,12.80
2019-04-03T21:58:12.464Z,12.73
2019-04-03T22:01:18.812Z,13.57
2019-04-03T22:03:51.459Z,12.73
2019-04-03T22:06:20.680Z,13.10
2019-04-03T22:08:51.502Z,13.00
2019-04-03T22:11:20.952Z,13.23
2019-04-03T22:13:50.701Z,12.93
2019-04-03T22:16:20.543Z,13.53
2019-04-03T22:18:50.238Z,12.63
2019-04-03T22:21:19.471Z,12.67
2019-04-03T22:23:48.990Z,13.53
2019-04-03T22:26:18.692Z,13.00
2019-04-03T22:28:48.297Z,13.67
2019-04-03T22:31:17.486Z,12.73
2019-04-03T22:33:47.121Z,12.70
2019-04-03T22:36:17.075Z,13.90
2019-04-03T22:38:46.273Z,13.67
2019-04-03T22:41:15.813Z,12.90
2019-04-03T22:43:46.232Z,12.17
2019-04-03T22:46:16.217Z,13.47
2019-04-03T22:48:45.824Z,13.00
2019-04-03T22:51:15.446Z,13.30
2019-04-03T22:53:45.095Z,12.80
2019-04-03T22:56:16.446Z,13.17
2019-04-03T22:58:46.042Z,13.03
2019-04-03T23:01:15.668Z,13.43
2019-04-03T23:03:44.858Z,13.23
2019-04-03T23:06:14.410Z,12.83
2019-04-03T23:08:44.060Z,13.70
2019-04-03T23:11:13.711Z,13.90
2019-04-03T23:13:42.972Z,12.93
2019-04-03T23:16:12.170Z,13.90
2019-04-03T23:18:42.753Z,13.40
2019-04-03T23:21:12.441Z,13.70
2019-04-03T23:23:42.069Z,13.93
2019-04-03T23:26:11.698Z,13.97
2019-04-03T23:28:40.954Z,13.50
2019-04-03T23:31:11.142Z,14.13
2019-04-03T23:33:41.812Z,13.53
2019-04-03T23:36:11.014Z,14.53
2019-04-03T23:38:41.089Z,14.00
2019-04-03T23:41:10.635Z,13.53
2019-04-03T23:43:40.074Z,14.67
2019-04-03T23:46:09.401Z,14.33
2019-04-03T23:48:38.579Z,18.23
2019-04-03T23:51:08.195Z,18.73
2019-04-03T23:53:37.869Z,18.03
2019-04-03T23:56:08.753Z,22.87
2019-04-03T23:58:39.953Z,14.63
